This is the latest recevied weather packets stored in our database for station/object 9W2YIE-13. If no packets are shown the sender has not sent any weather packets the latest 10 day(s).
| Time | Temp. | Humidity | Pressure | Rain* | Wind** | Luminosity | Snow |
|---|---|---|---|---|---|---|---|
| 1787968833 | 41.67° C | 37% | 1008 hPa | - | - | 0 W/m² | - |
| 1787967893 | 40.56° C | 38% | 1008 hPa | - | - | 0 W/m² | - |
| 1787967333 | 40.56° C | 38% | 1008 hPa | - | - | 0 W/m² | - |
| 1787966396 | 41.11° C | 38% | 1008 hPa | - | - | 0 W/m² | - |
| 1787965446 | 40.56° C | 38% | 1008 hPa | - | - | 0 W/m² | - |
| 1787964497 | 40° C | 39% | 1008 hPa | - | - | 0 W/m² | - |
| 1787963556 | 40.56° C | 38% | 1008 hPa | - | - | 0 W/m² | - |
| 1787962335 | 40° C | 39% | 1007 hPa | - | - | 0 W/m² | - |
| 1787961376 | 40.56° C | 38% | 1007 hPa | - | - | 0 W/m² | - |
| 1787960435 | 41.67° C | 36% | 1007 hPa | - | - | 0 W/m² | - |
| 1787959498 | 42.22° C | 36% | 1007 hPa | - | - | 0 W/m² | - |
| 1787958571 | 41.11° C | 37% | 1006 hPa | - | - | 0 W/m² | - |
| 1787957646 | 41.11° C | 38% | 1006 hPa | - | - | 0 W/m² | - |
| 1787956720 | 41.11° C | 37% | 1006 hPa | - | - | 0 W/m² | - |
| 1787955790 | 40.56° C | 38% | 1006 hPa | - | - | 0 W/m² | - |
| 1787954864 | 42.22° C | 35% | 1006 hPa | - | - | 0 W/m² | - |
| 1787953921 | 41.67° C | 37% | 1006 hPa | - | - | 0 W/m² | - |
| 1787952975 | 41.11° C | 38% | 1006 hPa | - | - | 0 W/m² | - |
| 1787952027 | 40.56° C | 39% | 1006 hPa | - | - | 0 W/m² | - |
| 1787951075 | 40.56° C | 39% | 1006 hPa | - | - | 0 W/m² | - |
| 1787950148 | 41.67° C | 37% | 1006 hPa | - | - | 0 W/m² | - |
| 1787949223 | 41.11° C | 37% | 1006 hPa | - | - | 0 W/m² | - |
| 1787948291 | 41.67° C | 36% | 1006 hPa | - | - | 0 W/m² | - |
| 1787947365 | 41.67° C | 36% | 1006 hPa | - | - | 0 W/m² | - |
| 1787946439 | 41.11° C | 37% | 1006 hPa | - | - | 0 W/m² | - |
* Rain since midnight (hover to see other rain measurements)
** Current wind speed in m/s (hover to see current wind gust speed)